Bredene, Belgium
Current Conditions -  °F | °C
As of 11:50 PM on Thursday 27 Nov 2014 (Local Time) from EBOS Reporting Station
Broken Clouds Broken Clouds  
Wind Chill: 46°   Ceiling: 1800
Heat Index: 48°   Visibility: 6mi
Dew Point: 48°   Wind: 6mph
Humidity: 100%   Direction: 90°E
Pressure: 29.65"   Gusts: NA
Location:  51.23°N, 2.98°E
Report Text: EBOS 272250Z 09005KT 9999 FEW007 BKN018 BKN042 09/09 Q1004 TEMPO BKN007
Loading
Personal Weather Stations






























Interactive Weather Map New forecast layout! Learn more

10-Day Weather Forecast

Advertisements
Track Severe Weather on mobile